Addis, LA (70710)

6:35 AM CST on December 06, 2016 (GMT -0600)
| | Change Station

Elev -9999 ft 0.00 °N, 0.00 °E | Updated

Cloudy
Cloudy
54 °F
Feels Like 54 °F
N
7
Wind Variable Wind from WNW
Gusts mph

Today
High -- | Low -- °F
--% Chance of Precip.
Yesterday
High -- | Low -- °F
Precip. -- in
Pressure 29.83 in
Visibility 4.0 miles
Clouds Scattered Clouds 500 ft
Mostly Cloudy 1000 ft
Overcast 1800 ft
Dew Point 52 °F
Humidity 91%
Rainfall --
Snow Depth Not available.
6:48 AM 5:04 PM
Waxing Crescent, 41% visible
METAR KBTR 061153Z 24007KT 4SM BR SCT005 BKN010 OVC018 11/11 A2983 RMK AO2 RAE1059 SLP101 P0000 60000 70096 T01110106 10167 20111 51021
Pressure 29.83 in
Visibility 4.0 miles
Clouds Scattered Clouds 500 ft
Mostly Cloudy 1000 ft
Overcast 1800 ft
Dew Point 52 °F
Humidity 91%
Rainfall --
Snow Depth Not available.
6:48 AM 5:04 PM
Waxing Crescent, 41% visible
METAR KBTR 061153Z 24007KT 4SM BR SCT005 BKN010 OVC018 11/11 A2983 RMK AO2 RAE1059 SLP101 P0000 60000 70096 T01110106 10167 20111 51021

10-Day Weather Forecast

Almanac

Astronomy

Dec. 06, 2016 Rise Set
Actual Time
Civil Twilight
Nautical Twilight
Astronomical Twilight
Moon
Length of Visible Light
Length of Day
Tomorrow will be .
, % of the Moon is Illuminated

Today's Extremes

State Highs State Lows

Community

WunderPhotos

Upload Photos

1,955,936 photos uploaded!

WunderBlog® & News

Nearby

Air Quality

  Air Quality AQ Index Pollutant
Not available.

Snow Depth

Station Depth Elevation

Earthquake Activity

City Distance Mag. Time & Date
Minimum magnitude displayed is 2.5.

Coastal Water Temperatures

Place Temperature

Stations

Nearby Weather Stations

Station Location Temp. Windchill Dew Point Humidity Wind Precip. Elev Updated Type
                   

Watches & Warnings

There are currently no watches in effect.